createdAt,value
2023-10-10T00:02:20.109Z,98750.72
2023-10-10T00:04:49.145Z,98753.16
2023-10-10T00:07:16.876Z,98753.16
2023-10-10T00:09:45.913Z,98753.94
2023-10-10T00:12:27.215Z,98754.88
2023-10-10T00:14:54.543Z,98759.97
2023-10-10T00:17:24.317Z,98755.78
2023-10-10T00:19:55.848Z,98765.09
2023-10-10T00:22:29.064Z,98761.53
2023-10-10T00:24:56.033Z,98772.59
2023-10-10T00:27:25.192Z,98774.28
2023-10-10T00:29:52.354Z,98775.88
2023-10-10T00:32:23.375Z,98772.38
2023-10-10T00:34:52.063Z,98777.47
2023-10-10T00:37:30.659Z,98776.75
2023-10-10T00:40:01.294Z,98786.09
2023-10-10T00:42:43.172Z,98782.66
2023-10-10T00:45:13.497Z,98784.44
2023-10-10T00:47:44.804Z,98787.88
2023-10-10T00:50:17.647Z,98791.28
2023-10-10T00:52:57.845Z,98791.38
2023-10-10T00:55:26.704Z,98786.38
2023-10-10T00:57:57.737Z,98793.16
2023-10-10T01:00:26.604Z,98794.06
2023-10-10T01:02:54.442Z,98799.28
2023-10-10T01:05:25.712Z,98799.41
2023-10-10T01:07:55.743Z,98795.25
2023-10-10T01:10:22.927Z,98802.13
2023-10-10T01:12:50.102Z,98796.16
2023-10-10T01:15:26.325Z,98794.44
2023-10-10T01:17:55.519Z,98801.25
2023-10-10T01:20:46.468Z,98806.31
2023-10-10T01:23:16.625Z,98808.06
2023-10-10T01:25:47.564Z,98814.91
2023-10-10T01:28:24.915Z,98809.00
2023-10-10T01:30:58.950Z,98811.53
2023-10-10T01:33:37.931Z,98811.69
2023-10-10T01:36:20.327Z,98809.97
2023-10-10T01:39:21.244Z,98809.97
2023-10-10T01:41:51.427Z,98805.63
2023-10-10T01:44:24.230Z,98819.97
2023-10-10T01:46:54.738Z,98820.88
2023-10-10T01:49:22.933Z,98824.25
2023-10-10T01:52:00.452Z,98822.53
2023-10-10T01:54:42.934Z,98819.97
2023-10-10T01:57:22.141Z,98827.66
2023-10-10T01:59:50.636Z,98823.34
2023-10-10T02:02:20.206Z,98831.97
2023-10-10T02:04:49.125Z,98832.81
2023-10-10T02:07:25.320Z,98828.56
2023-10-10T02:10:14.666Z,98836.31
2023-10-10T02:12:46.562Z,98826.97
2023-10-10T02:15:17.565Z,98837.25
2023-10-10T02:18:07.934Z,98836.25
2023-10-10T02:20:51.372Z,98843.88
2023-10-10T02:23:35.579Z,98847.19
2023-10-10T02:26:24.995Z,98849.81
2023-10-10T02:29:12.852Z,98850.72
2023-10-10T02:31:43.210Z,98855.16
2023-10-10T02:34:11.857Z,98857.66
2023-10-10T02:36:42.315Z,98861.88
2023-10-10T02:39:18.251Z,98858.44
2023-10-10T02:41:50.806Z,98858.38
2023-10-10T02:44:27.699Z,98861.78
2023-10-10T02:46:57.984Z,98859.22
2023-10-10T02:49:31.100Z,98872.00
2023-10-10T02:51:59.904Z,98866.94
2023-10-10T02:54:28.562Z,98866.09
2023-10-10T02:57:27.140Z,98872.78
2023-10-10T03:00:17.455Z,98870.25
2023-10-10T03:02:51.743Z,98867.66
2023-10-10T03:05:45.858Z,98872.84
2023-10-10T03:08:15.783Z,98876.22
2023-10-10T03:10:55.652Z,98873.59
2023-10-10T03:13:48.861Z,98865.16
2023-10-10T03:16:36.679Z,98874.69
2023-10-10T03:19:04.883Z,98877.88
2023-10-10T03:21:44.690Z,98877.03
2023-10-10T03:24:21.753Z,98876.22
2023-10-10T03:27:21.283Z,98879.84
2023-10-10T03:29:48.834Z,98884.84
2023-10-10T03:32:34.753Z,98875.50
2023-10-10T03:35:21.589Z,98886.56
2023-10-10T03:38:05.888Z,98883.19
2023-10-10T03:40:52.450Z,98890.00
2023-10-10T03:43:38.276Z,98886.56
2023-10-10T03:46:24.291Z,98895.25
2023-10-10T03:49:10.558Z,98897.88
2023-10-10T03:51:56.010Z,98894.56
2023-10-10T03:54:42.074Z,98895.25
2023-10-10T03:57:27.573Z,98903.81
2023-10-10T04:00:13.293Z,98907.31
2023-10-10T04:02:59.215Z,98909.09
2023-10-10T04:05:45.086Z,98910.66
2023-10-10T04:08:30.783Z,98912.19
2023-10-10T04:11:16.274Z,98910.47
2023-10-10T04:14:01.753Z,98912.16
2023-10-10T04:16:47.373Z,98914.56
2023-10-10T04:19:33.243Z,98915.53
2023-10-10T04:22:19.095Z,98917.41
2023-10-10T04:25:04.725Z,98913.94
2023-10-10T04:27:50.856Z,98919.94
2023-10-10T04:30:36.868Z,98927.44
2023-10-10T04:33:22.502Z,98930.97
2023-10-10T04:36:08.614Z,98933.53
2023-10-10T04:38:54.367Z,98938.84
2023-10-10T04:41:39.857Z,98944.03
2023-10-10T04:44:25.896Z,98941.44
2023-10-10T04:47:12.157Z,98945.63
2023-10-10T04:49:57.816Z,98945.56
2023-10-10T04:52:43.497Z,98955.00
2023-10-10T04:55:28.962Z,98957.47
2023-10-10T04:58:14.666Z,98960.78
2023-10-10T05:01:20.151Z,98955.66
2023-10-10T05:04:05.824Z,98960.00
2023-10-10T05:06:51.425Z,98960.91
2023-10-10T05:09:37.468Z,98962.59
2023-10-10T05:12:23.621Z,98961.63
2023-10-10T05:15:09.572Z,98967.63
2023-10-10T05:17:55.093Z,98964.19
2023-10-10T05:20:41.356Z,98970.25
2023-10-10T05:23:27.402Z,98979.78
2023-10-10T05:25:55.233Z,98979.88
2023-10-10T05:28:23.510Z,98979.00
2023-10-10T05:30:52.319Z,98982.50
2023-10-10T05:33:21.088Z,98987.69
2023-10-10T05:35:51.310Z,98990.19
2023-10-10T05:38:18.412Z,98995.16
2023-10-10T05:40:48.674Z,98991.84
2023-10-10T05:43:17.472Z,98991.91
2023-10-10T05:45:45.579Z,98997.09
2023-10-10T05:48:13.774Z,98999.59
2023-10-10T05:50:44.333Z,99001.91
2023-10-10T05:53:11.444Z,99004.41
2023-10-10T05:55:38.990Z,99002.59
2023-10-10T05:58:06.964Z,99003.44
2023-10-10T06:00:43.261Z,99009.44
2023-10-10T06:03:11.600Z,99014.69
2023-10-10T06:05:42.608Z,99009.75
2023-10-10T06:08:09.779Z,99014.94
2023-10-10T06:10:36.756Z,99013.41
2023-10-10T06:13:08.240Z,99014.22
2023-10-10T06:15:36.231Z,99015.13
2023-10-10T06:18:15.144Z,99021.19
2023-10-10T06:20:58.152Z,99022.97
2023-10-10T06:23:34.515Z,99019.34
2023-10-10T06:26:05.532Z,99023.63
2023-10-10T06:28:46.426Z,99027.16
2023-10-10T06:31:33.025Z,99033.09
2023-10-10T06:34:01.079Z,99033.22
2023-10-10T06:36:34.033Z,99033.16
2023-10-10T06:39:19.914Z,99038.88
2023-10-10T06:41:49.456Z,99045.69
2023-10-10T06:44:19.596Z,99050.06
2023-10-10T06:46:50.279Z,99040.72
2023-10-10T06:49:19.672Z,99049.41
2023-10-10T06:51:47.060Z,99046.94
2023-10-10T06:54:21.337Z,99055.53
2023-10-10T06:57:09.207Z,99058.94
2023-10-10T06:59:36.739Z,99052.31
2023-10-10T07:02:15.405Z,99049.19
2023-10-10T07:04:42.623Z,99063.16
2023-10-10T07:07:11.386Z,99055.56
2023-10-10T07:09:38.713Z,99061.69
2023-10-10T07:12:12.710Z,99059.38
2023-10-10T07:14:48.351Z,99061.94
2023-10-10T07:17:16.424Z,99067.94
2023-10-10T07:20:03.350Z,99067.97
2023-10-10T07:22:36.543Z,99072.34
2023-10-10T07:25:09.646Z,99075.00
2023-10-10T07:27:38.310Z,99081.78
2023-10-10T07:30:18.239Z,99081.69
2023-10-10T07:32:52.476Z,99085.19
2023-10-10T07:35:27.131Z,99083.25
2023-10-10T07:37:58.616Z,99088.38
2023-10-10T07:40:32.647Z,99087.69
2023-10-10T07:43:00.459Z,99091.97
2023-10-10T07:45:35.352Z,99087.69
2023-10-10T07:48:04.007Z,99092.84
2023-10-10T07:50:36.559Z,99095.56
2023-10-10T07:53:07.252Z,99099.94
2023-10-10T07:55:53.704Z,99094.75
2023-10-10T07:58:45.027Z,99099.69
2023-10-10T08:01:20.433Z,99095.34
2023-10-10T08:03:49.709Z,99103.66
2023-10-10T08:06:20.323Z,99099.28
2023-10-10T08:08:50.465Z,99102.69
2023-10-10T08:11:29.166Z,99099.19
2023-10-10T08:13:56.959Z,99100.97
2023-10-10T08:16:31.135Z,99107.88
2023-10-10T08:19:05.915Z,99114.84
2023-10-10T08:21:54.514Z,99121.13
2023-10-10T08:24:21.715Z,99116.00
2023-10-10T08:26:52.856Z,99116.06
2023-10-10T08:29:24.580Z,99122.81
2023-10-10T08:31:53.198Z,99123.59
2023-10-10T08:34:20.517Z,99125.47
2023-10-10T08:36:47.674Z,99127.19
2023-10-10T08:39:14.690Z,99129.84
2023-10-10T08:41:42.784Z,99131.59
2023-10-10T08:44:11.736Z,99133.19
2023-10-10T08:46:44.755Z,99138.34
2023-10-10T08:49:13.300Z,99141.69
2023-10-10T08:51:40.886Z,99138.13
2023-10-10T08:54:12.108Z,99142.47
2023-10-10T08:56:42.550Z,99141.69
2023-10-10T08:59:12.390Z,99145.13
2023-10-10T09:01:40.935Z,99153.88
2023-10-10T09:04:14.339Z,99152.19
2023-10-10T09:06:59.384Z,99146.81
2023-10-10T09:09:59.527Z,99149.00
2023-10-10T09:12:26.589Z,99151.38
2023-10-10T09:14:53.714Z,99154.00
2023-10-10T09:17:40.287Z,99154.16
2023-10-10T09:20:25.072Z,99158.50
2023-10-10T09:22:59.219Z,99156.78
2023-10-10T09:25:32.860Z,99159.25
2023-10-10T09:28:00.962Z,99159.34
2023-10-10T09:30:36.424Z,99162.75
2023-10-10T09:33:37.020Z,99161.84
2023-10-10T09:36:17.308Z,99159.53
2023-10-10T09:38:48.366Z,99156.31
2023-10-10T09:41:38.255Z,99162.41
2023-10-10T09:44:24.792Z,99164.09
2023-10-10T09:47:05.533Z,99175.78
2023-10-10T09:50:00.691Z,99170.78
2023-10-10T09:52:47.818Z,99182.13
2023-10-10T09:55:15.508Z,99183.84
2023-10-10T09:58:02.600Z,99177.78
2023-10-10T10:00:40.085Z,99180.44
2023-10-10T10:03:28.208Z,99185.59
2023-10-10T10:07:04.442Z,99182.25
2023-10-10T10:09:47.303Z,99184.00
2023-10-10T10:12:51.552Z,99189.94
2023-10-10T10:15:21.469Z,99200.03
2023-10-10T10:18:28.625Z,99195.75
2023-10-10T10:21:09.303Z,99194.84
2023-10-10T10:23:46.839Z,99195.78
2023-10-10T10:26:43.306Z,99199.50
2023-10-10T10:29:38.419Z,99195.63
2023-10-10T10:32:08.827Z,99200.22
2023-10-10T10:34:37.079Z,99203.84
2023-10-10T10:37:14.570Z,99205.75
2023-10-10T10:40:03.579Z,99202.34
2023-10-10T10:42:36.055Z,99203.94
2023-10-10T10:45:43.009Z,99204.13
2023-10-10T10:48:31.316Z,99218.66
2023-10-10T10:51:03.330Z,99209.22
2023-10-10T10:53:39.323Z,99224.47
2023-10-10T10:56:19.319Z,99217.56
2023-10-10T10:58:56.647Z,99226.97
2023-10-10T11:01:30.426Z,99221.78
2023-10-10T11:03:57.732Z,99229.53
2023-10-10T11:06:30.183Z,99230.28
2023-10-10T11:09:11.287Z,99229.47
2023-10-10T11:11:38.678Z,99231.44
2023-10-10T11:14:16.206Z,99229.97
2023-10-10T11:16:47.836Z,99230.91
2023-10-10T11:19:24.440Z,99233.66
2023-10-10T11:21:56.571Z,99225.09
2023-10-10T11:24:30.546Z,99237.78
2023-10-10T11:27:08.747Z,99235.06
2023-10-10T11:29:46.021Z,99239.97
2023-10-10T11:32:15.554Z,99242.41
2023-10-10T11:34:46.529Z,99250.03
2023-10-10T11:37:33.778Z,99248.38
2023-10-10T11:40:28.576Z,99250.25
2023-10-10T11:42:57.389Z,99256.19
2023-10-10T11:45:28.583Z,99258.69
2023-10-10T11:48:13.522Z,99260.31
2023-10-10T11:50:49.191Z,99262.06
2023-10-10T11:53:21.438Z,99267.25
2023-10-10T11:55:49.036Z,99262.91
2023-10-10T11:58:18.899Z,99270.53
2023-10-10T12:01:01.031Z,99269.56
2023-10-10T12:03:41.863Z,99270.16
2023-10-10T12:06:23.132Z,99272.63
2023-10-10T12:08:51.992Z,99274.38
2023-10-10T12:11:24.045Z,99276.28
2023-10-10T12:13:52.821Z,99282.44
2023-10-10T12:16:29.369Z,99294.50
2023-10-10T12:18:56.793Z,99282.59
2023-10-10T12:21:25.452Z,99288.56
2023-10-10T12:24:01.402Z,99291.00
2023-10-10T12:26:37.663Z,99289.09
2023-10-10T12:29:04.819Z,99292.34
2023-10-10T12:31:35.492Z,99300.03
2023-10-10T12:34:03.141Z,99300.03
2023-10-10T12:36:31.069Z,99301.72
2023-10-10T12:39:01.636Z,99313.72
2023-10-10T12:41:29.509Z,99312.81
2023-10-10T12:43:56.793Z,99315.22
2023-10-10T12:46:23.846Z,99322.75
2023-10-10T12:48:54.350Z,99323.53
2023-10-10T12:51:25.706Z,99325.53
2023-10-10T12:54:02.250Z,99322.19
2023-10-10T12:56:30.045Z,99328.09
2023-10-10T12:59:19.126Z,99324.53
2023-10-10T13:01:57.470Z,99333.22
2023-10-10T13:04:31.030Z,99333.97
2023-10-10T13:07:04.666Z,99335.63
2023-10-10T13:09:33.253Z,99331.38
2023-10-10T13:12:04.890Z,99330.69
2023-10-10T13:14:34.540Z,99342.59
2023-10-10T13:17:30.119Z,99346.84
2023-10-10T13:20:00.067Z,99345.09
2023-10-10T13:22:30.726Z,99359.00
2023-10-10T13:24:58.439Z,99359.78
2023-10-10T13:27:26.750Z,99363.91
2023-10-10T13:29:54.056Z,99369.88
2023-10-10T13:32:21.860Z,99376.72
2023-10-10T13:34:49.434Z,99385.13
2023-10-10T13:37:16.517Z,99381.59
2023-10-10T13:39:50.108Z,99380.75
2023-10-10T13:42:19.236Z,99389.19
2023-10-10T13:44:47.520Z,99388.41
2023-10-10T13:47:14.688Z,99396.03
2023-10-10T13:49:59.845Z,99393.53
2023-10-10T13:52:26.804Z,99397.91
2023-10-10T13:54:53.925Z,99398.66
2023-10-10T13:57:20.874Z,99396.97
2023-10-10T13:59:50.507Z,99409.88
2023-10-10T14:02:18.514Z,99406.28
2023-10-10T14:04:50.148Z,99412.25
2023-10-10T14:07:17.944Z,99418.94
2023-10-10T14:12:21.909Z,99427.31
2023-10-10T14:14:49.528Z,99428.00
2023-10-10T14:17:16.620Z,99432.25
2023-10-10T14:19:43.593Z,99441.66
2023-10-10T14:22:12.000Z,99439.72
2023-10-10T14:24:40.553Z,99444.72
2023-10-10T14:27:07.691Z,99448.88
2023-10-10T14:29:42.997Z,99450.50
2023-10-10T14:32:23.001Z,99461.59
2023-10-10T14:34:59.311Z,99468.44
2023-10-10T14:37:41.688Z,99470.13
2023-10-10T14:40:13.745Z,99476.22
2023-10-10T14:42:43.455Z,99471.06
2023-10-10T14:45:14.294Z,99472.66
2023-10-10T14:47:45.165Z,99485.34
2023-10-10T14:50:14.636Z,99487.81
2023-10-10T14:52:48.591Z,99493.69
2023-10-10T14:55:29.284Z,99490.22
2023-10-10T14:57:57.354Z,99495.41
2023-10-10T15:00:30.045Z,99498.66
2023-10-10T15:02:58.014Z,99500.25
2023-10-10T15:05:26.993Z,99507.03
2023-10-10T15:07:55.219Z,99508.50
2023-10-10T15:10:27.670Z,99521.31
2023-10-10T15:12:56.315Z,99515.28
2023-10-10T15:15:24.633Z,99522.13
2023-10-10T15:17:52.555Z,99534.84
2023-10-10T15:20:20.297Z,99535.88
2023-10-10T15:22:47.807Z,99551.53
2023-10-10T15:25:16.754Z,99549.81
2023-10-10T15:27:44.186Z,99560.81
2023-10-10T15:30:12.040Z,99563.44
2023-10-10T15:32:48.809Z,99563.38
2023-10-10T15:35:18.346Z,99568.56
2023-10-10T15:37:45.978Z,99570.28
2023-10-10T15:40:15.178Z,99570.31
2023-10-10T15:42:42.247Z,99571.97
2023-10-10T15:45:09.553Z,99573.63
2023-10-10T15:47:36.742Z,99583.09
2023-10-10T15:50:03.927Z,99587.41
2023-10-10T15:52:35.173Z,99583.94
2023-10-10T15:55:07.054Z,99589.06
2023-10-10T15:57:37.265Z,99600.13
2023-10-10T16:00:11.987Z,99603.66
2023-10-10T16:02:41.170Z,99603.63
2023-10-10T16:05:08.665Z,99597.59
2023-10-10T16:07:35.817Z,99612.94
2023-10-10T16:10:04.381Z,99617.25
2023-10-10T16:12:31.607Z,99619.72
2023-10-10T16:15:01.393Z,99617.25
2023-10-10T16:17:30.244Z,99619.94
2023-10-10T16:19:59.633Z,99622.69
2023-10-10T16:22:27.327Z,99629.66
2023-10-10T16:24:54.287Z,99633.84
2023-10-10T16:27:23.004Z,99636.97
2023-10-10T16:29:56.870Z,99642.75
2023-10-10T16:32:24.373Z,99649.44
2023-10-10T16:34:51.998Z,99653.66
2023-10-10T16:37:22.016Z,99656.22
2023-10-10T16:39:49.986Z,99658.72
2023-10-10T16:42:21.060Z,99662.81
2023-10-10T16:44:48.891Z,99666.94
2023-10-10T16:47:19.500Z,99670.34
2023-10-10T16:49:52.011Z,99672.91
2023-10-10T16:52:21.126Z,99678.16
2023-10-10T16:54:52.505Z,99679.84
2023-10-10T16:57:25.879Z,99687.50
2023-10-10T16:59:57.052Z,99685.69
2023-10-10T17:02:30.239Z,99688.16
2023-10-10T17:05:02.008Z,99685.44
2023-10-10T17:07:31.839Z,99687.97
2023-10-10T17:09:59.251Z,99686.13
2023-10-10T17:12:26.791Z,99689.53
2023-10-10T17:14:54.125Z,99697.28
2023-10-10T17:17:26.189Z,99699.84
2023-10-10T17:19:53.664Z,99700.06
2023-10-10T17:22:21.320Z,99694.03
2023-10-10T17:24:48.806Z,99705.16
2023-10-10T17:27:15.906Z,99705.28
2023-10-10T17:29:43.110Z,99713.59
2023-10-10T17:32:10.319Z,99715.34
2023-10-10T17:34:37.346Z,99726.50
2023-10-10T17:37:10.123Z,99717.88
2023-10-10T17:39:37.247Z,99722.16
2023-10-10T17:42:05.234Z,99726.50
2023-10-10T17:44:32.741Z,99722.97
2023-10-10T17:46:59.833Z,99725.44
2023-10-10T17:49:27.014Z,99734.72
2023-10-10T17:51:55.879Z,99737.06
2023-10-10T17:54:23.319Z,99734.53
2023-10-10T17:56:50.547Z,99739.59
2023-10-10T17:59:20.334Z,99741.94
2023-10-10T18:01:47.576Z,99746.97
2023-10-10T18:04:16.912Z,99745.16
2023-10-10T18:06:44.286Z,99746.91
2023-10-10T18:09:11.466Z,99749.53
2023-10-10T18:11:38.747Z,99748.63
2023-10-10T18:14:08.654Z,99760.63
2023-10-10T18:16:36.308Z,99763.25
2023-10-10T18:19:06.274Z,99759.97
2023-10-10T18:21:34.455Z,99769.50
2023-10-10T18:24:07.711Z,99761.53
2023-10-10T18:26:39.589Z,99771.53
2023-10-10T18:29:07.585Z,99776.69
2023-10-10T18:31:40.117Z,99781.91
2023-10-10T18:34:07.982Z,99778.50
2023-10-10T18:36:38.765Z,99782.09
2023-10-10T18:39:14.641Z,99783.94
2023-10-10T18:41:43.071Z,99788.13
2023-10-10T18:44:11.092Z,99787.19
2023-10-10T18:46:38.270Z,99796.59
2023-10-10T18:49:06.961Z,99793.25
2023-10-10T18:51:34.397Z,99792.34
2023-10-10T18:54:01.482Z,99792.50
2023-10-10T18:56:29.140Z,99792.63
2023-10-10T18:58:56.858Z,99799.34
2023-10-10T19:01:24.104Z,99807.69
2023-10-10T19:03:52.386Z,99808.50
2023-10-10T19:06:19.927Z,99816.91
2023-10-10T19:08:50.162Z,99817.03
2023-10-10T19:11:24.824Z,99823.78
2023-10-10T19:13:52.108Z,99821.09
2023-10-10T19:16:19.410Z,99823.47
2023-10-10T19:18:47.189Z,99827.78
2023-10-10T19:21:19.559Z,99829.69
2023-10-10T19:23:51.416Z,99832.38
2023-10-10T19:26:18.890Z,99842.63
2023-10-10T19:28:54.424Z,99844.94
2023-10-10T19:31:25.400Z,99841.44
2023-10-10T19:33:52.736Z,99845.75
2023-10-10T19:36:21.924Z,99846.50
2023-10-10T19:38:49.471Z,99856.69
2023-10-10T19:41:19.523Z,99855.81
2023-10-10T19:43:47.230Z,99868.78
2023-10-10T19:46:14.335Z,99872.91
2023-10-10T19:48:41.884Z,99865.19
2023-10-10T19:51:19.769Z,99867.16
2023-10-10T19:53:51.824Z,99869.00
2023-10-10T19:56:19.854Z,99873.09
2023-10-10T19:58:47.370Z,99876.47
2023-10-10T20:01:14.813Z,99877.38
2023-10-10T20:03:43.860Z,99879.03
2023-10-10T20:06:22.086Z,99887.31
2023-10-10T20:08:50.442Z,99873.09
2023-10-10T20:11:17.864Z,99883.06
2023-10-10T20:13:46.636Z,99883.94
2023-10-10T20:16:16.030Z,99882.28
2023-10-10T20:18:48.698Z,99888.22
2023-10-10T20:21:17.536Z,99889.75
2023-10-10T20:23:45.773Z,99888.50
2023-10-10T20:26:19.388Z,99893.50
2023-10-10T20:28:49.167Z,99900.16
2023-10-10T20:31:19.094Z,99897.66
2023-10-10T20:33:49.139Z,99902.88
2023-10-10T20:36:17.199Z,99900.34
2023-10-10T20:38:45.203Z,99898.69
2023-10-10T20:41:13.992Z,99902.91
2023-10-10T20:43:42.135Z,99905.53
2023-10-10T20:46:10.920Z,99904.88
2023-10-10T20:48:38.239Z,99909.25
2023-10-10T20:51:05.660Z,99911.41
2023-10-10T20:53:32.854Z,99906.13
2023-10-10T20:56:02.313Z,99907.09
2023-10-10T20:58:30.410Z,99912.88
2023-10-10T21:00:57.810Z,99916.31
2023-10-10T21:03:25.107Z,99921.13
2023-10-10T21:05:52.179Z,99924.63
2023-10-10T21:08:19.669Z,99923.06
2023-10-10T21:10:47.157Z,99926.69
2023-10-10T21:13:15.391Z,99919.56
2023-10-10T21:15:42.779Z,99928.19
2023-10-10T21:18:10.299Z,99935.06
2023-10-10T21:23:11.869Z,99942.81
2023-10-10T21:25:42.623Z,99950.25
2023-10-10T21:28:09.909Z,99951.94
2023-10-10T21:30:39.525Z,99949.94
2023-10-10T21:33:08.181Z,99951.19
2023-10-10T21:35:35.846Z,99958.84
2023-10-10T21:38:03.669Z,99969.31
2023-10-10T21:40:33.996Z,99970.25
2023-10-10T21:43:01.465Z,99970.06
2023-10-10T21:45:33.540Z,99973.06
2023-10-10T21:48:05.359Z,99987.19
2023-10-10T21:50:33.085Z,99988.97
2023-10-10T21:53:01.557Z,99983.69
2023-10-10T21:55:29.317Z,99982.56
2023-10-10T21:57:57.146Z,99983.19
2023-10-10T22:00:46.041Z,99983.88
2023-10-10T22:03:15.285Z,99985.47
2023-10-10T22:05:46.487Z,99990.25
2023-10-10T22:08:14.124Z,99994.25
2023-10-10T22:10:43.303Z,99996.03
2023-10-10T22:13:16.365Z,100004.28
2023-10-10T22:15:43.535Z,100006.91
2023-10-10T22:18:12.885Z,100007.44
2023-10-10T22:20:43.486Z,100007.31
2023-10-10T22:23:10.750Z,100008.81
2023-10-10T22:25:38.162Z,100011.19
2023-10-10T22:28:05.925Z,100009.06
2023-10-10T22:30:37.064Z,100007.84
2023-10-10T22:33:05.365Z,100013.28
2023-10-10T22:35:35.402Z,100012.03
2023-10-10T22:38:02.956Z,100020.28
2023-10-10T22:40:29.942Z,100020.81
2023-10-10T22:43:02.803Z,100024.81
2023-10-10T22:45:34.603Z,100033.19
2023-10-10T22:48:05.106Z,100035.69
2023-10-10T22:50:32.649Z,100031.19
2023-10-10T22:53:02.524Z,100034.16
2023-10-10T22:55:34.742Z,100036.47
2023-10-10T22:58:08.041Z,100035.56
2023-10-10T23:00:37.994Z,100038.16
2023-10-10T23:03:11.230Z,100041.41
2023-10-10T23:05:44.187Z,100046.63
2023-10-10T23:08:12.674Z,100051.81
2023-10-10T23:10:44.668Z,100049.91
2023-10-10T23:13:17.182Z,100050.19
2023-10-10T23:15:49.166Z,100057.63
2023-10-10T23:18:20.310Z,100060.03
2023-10-10T23:20:47.860Z,100059.06
2023-10-10T23:23:17.470Z,100057.84
2023-10-10T23:25:48.412Z,100064.28
2023-10-10T23:28:15.442Z,100062.25
2023-10-10T23:30:43.483Z,100060.34
2023-10-10T23:33:14.828Z,100053.13
2023-10-10T23:35:42.715Z,100065.81
2023-10-10T23:38:11.107Z,100065.34
2023-10-10T23:40:42.011Z,100056.16
2023-10-10T23:43:10.247Z,100061.28
2023-10-10T23:45:43.712Z,100062.94
2023-10-10T23:48:18.147Z,100058.44
2023-10-10T23:50:46.637Z,100065.25
2023-10-10T23:53:14.687Z,100068.34
2023-10-10T23:55:42.495Z,100063.66
2023-10-10T23:58:13.243Z,100059.22
